NCAR-RAP Real-Time Weather Data

Output produced by METARs form (26 May 2022  08:24 UTC)
found at http://weather.rap.ucar.edu/surface/
 
KPHX 260751Z 25004KT 10SM CLR 29/00 A2979 RMK AO2 SLP066 T02940000
KPHX 260651Z 26009KT 10SM CLR 32/M01 A2979 RMK AO2 SLP065 T03221011 403940239
KPHX 260551Z 30010KT 10SM CLR 34/M02 A2978 RMK AO2 SLP063 T03391017 10394 20328 51018
KPHX 260451Z 24004KT 10SM CLR 33/M02 A2977 RMK AO2 SLP059 T03331017
KPHX 260351Z 25005KT 10SM CLR 34/M01 A2974 RMK AO2 SLP051 T03441006
KPHX 260251Z 26010KT 10SM CLR 37/M01 A2973 RMK AO2 SLP045 T03671011 53002
KPHX 260151Z 26007KT 230V290 10SM CLR 38/M04 A2972 RMK AO2 SLP042 T03781044
KPHX 260051Z 25006KT 10SM CLR 39/M04 A2971 RMK AO2 SLP039 T03891044
KPHX 252354Z 25006KT 10SM CLR 39/M06 A2972 RMK AO2 T03941061
KPHX 252351Z 10SM CLR 39/M06 A2972 RMK AO2 SLP043 T03891061 10394 20333 56020
KPHX 252251Z 29004KT 10SM CLR 39/M07 A2974 RMK AO2 SLP048 T03891067
KPHX 252151Z 31011G14KT 10SM CLR 39/M06 A2976 RMK AO2 SLP056 T03891056
KPHX 252051Z 27008KT 10SM CLR 38/M05 A2978 RMK AO2 SLP063 T03831050 58021
KPHX 251951Z VRB04KT 10SM CLR 36/M04 A2981 RMK AO2 SLP072 T03611039
KPHX 251851Z 12006KT 10SM CLR 36/00 A2983 RMK AO2 SLP079 T03560000
KPHX 251751Z VRB05KT 10SM CLR 33/02 A2985 RMK AO2 SLP087 T03280017 10344 20239 50000
KPHX 251651Z 14005KT 10SM FEW250 31/03 A2986 RMK AO2 SLP089 T03110028
KPHX 251551Z 14005KT 10SM FEW250 29/03 A2985 RMK AO2 SLP088 T02940033
KPHX 251451Z COR 12005KT 10SM FEW250 27/01 A2985 RMK AO2 SLP088 T02720011 51018
KPHX 251351Z 09007KT 10SM FEW250 25/01 A2984 RMK AO2 SLP084 T02500011
KPHX 251251Z 09003KT 10SM FEW120 SCT140 24/02 A2982 RMK AO2 SLP078 T02390022
KPHX 251151Z 00000KT 10SM SCT120 24/04 A2979 RMK AO2 SLP069 T02440044 10306 20244 53017
KPHX 251051Z 36003KT 10SM FEW120 27/04 A2977 RMK AO2 SLP059 T02720044
KPHX 250951Z 27007KT 10SM CLR 28/04 A2975 RMK AO2 SLP054 T02830044
KPHX 250851Z 26006KT 10SM CLR 29/04 A2974 RMK AO2 SLP050 T02890044 53002
KPHX 250751Z 26011KT 10SM CLR 29/04 A2973 RMK AO2 SLP047 T02940039
KPHX 250651Z 27010KT 10SM CLR 30/01 A2973 RMK AO2 SLP046 T03000011 403720228
KPHX 250551Z 26008KT 10SM CLR 31/M02 A2973 RMK AO2 SLP047 T03061017 10367 20306 51017
KPHX 250451Z 26009KT 10SM CLR 32/M04 A2973 RMK AO2 SLP045 T03221044
KPHX 250351Z 24009KT 10SM CLR 32/M05 A2970 RMK AO2 SLP037 T03221050
KPHX 250251Z 23011KT 10SM CLR 34/M06 A2968 RMK AO2 SLP030 T03391056 53003
KPHX 250151Z 23014KT 10SM FEW250 35/M06 A2966 RMK AO2 SLP025 T03501056
KPHX 250051Z 26016G27KT 10SM FEW250 37/M07 A2966 RMK AO2 PK WND 26027/0047 SLP023 T03671072
KPHX 242351Z 27011G19KT 10SM FEW250 36/M07 A2967 RMK AO2 SLP028 T03611072 10372 20317 56020
KPHX 242251Z 27012G18KT 10SM FEW250 36/M08 A2969 RMK AO2 SLP033 T03611083
KPHX 242151Z 27006KT 10SM FEW250 36/M08 A2971 RMK AO2 SLP040 T03611083
KPHX 242051Z 24011G14KT 10SM FEW250 35/M08 A2973 RMK AO2 SLP047 T03501083 57021
KPHX 241951Z 28011G17KT 10SM FEW250 35/M07 A2975 RMK AO2 SLP054 T03501072
KPHX 241851Z VRB05KT 10SM FEW250 34/M07 A2978 RMK AO2 SLP062 T03441067
KPHX 241751Z 00000KT 10SM FEW250 32/M04 A2980 RMK AO2 SLP069 T03221039 10322 20228 58003
KPHX 241651Z VRB03KT 10SM FEW250 30/00 A2981 RMK AO2 SLP074 T03000000
KPHX 241551Z 27003KT 10SM FEW250 28/01 A2981 RMK AO2 SLP075 T02830011
KPHX 241451Z 35005KT 10SM FEW250 27/02 A2981 RMK AO2 SLP074 T02670017 52016
KPHX 241351Z 25004KT 10SM FEW250 26/02 A2979 RMK AO2 SLP070 T02560017
KPHX 241251Z 26003KT 10SM FEW120 FEW230 24/02 A2977 RMK AO2 SLP063 T02440017
KPHX 241151Z 36005KT 10SM CLR 25/03 A2976 RMK AO2 SLP057 T02500028 10294 20250 53010
KPHX 241051Z 32009G17KT 10SM SCT250 26/M01 A2974 RMK AO2 SLP050 T02611006
KPHX 240951Z 30010G19KT 10SM SCT250 27/M02 A2973 RMK AO2 SLP046 T02721022
KPHX 240851Z 30007KT 10SM FEW250 28/M01 A2973 RMK AO2 SLP045 T02781006 53008